Time;durP1;ratioP1;P1;durP2;ratioP2;P2;SDS_P1;SDS_P2;PMS_P1;PMS_P2;Temp;Humidity;BMP_temperature;BMP_pressure;BME280_temperature;BME280_humidity;BME280_pressure;Samples;Min_cycle;Max_cycle;Signal;HPM_P1;HPM_P2
2022/07/18 00:00:58;;;;;;;5.70;1.67;;;24.70;57.10;;;;;;5053917;28;20021;-67
2022/07/18 00:03:24;;;;;;;7.43;2.05;;;24.60;56.90;;;;;;5054090;28;20029;-67
2022/07/18 00:05:49;;;;;;;6.15;1.48;;;24.50;56.90;;;;;;5053773;28;20025;-68
2022/07/18 00:08:15;;;;;;;4.90;1.63;;;24.50;56.70;;;;;;5054005;28;20458;-68
2022/07/18 00:10:41;;;;;;;2.90;1.60;;;24.50;56.50;;;;;;5053904;28;20056;-67
2022/07/18 00:13:06;;;;;;;4.80;1.75;;;24.50;56.40;;;;;;5053909;28;20439;-68
2022/07/18 00:15:32;;;;;;;6.53;2.05;;;24.40;56.60;;;;;;5053525;28;20493;-67
2022/07/18 00:17:57;;;;;;;4.40;1.55;;;24.40;56.20;;;;;;5053714;28;20037;-67
2022/07/18 00:20:23;;;;;;;7.90;1.80;;;24.40;55.90;;;;;;5053536;28;20466;-67
2022/07/18 00:22:49;;;;;;;6.43;1.60;;;24.30;56.10;;;;;;5052656;28;20485;-67
2022/07/18 00:25:14;;;;;;;3.33;1.63;;;24.30;55.90;;;;;;5053366;28;20045;-67
2022/07/18 00:27:40;;;;;;;3.85;1.33;;;24.20;56.10;;;;;;5053666;28;20564;-67
2022/07/18 00:30:06;;;;;;;5.68;1.90;;;24.20;56.00;;;;;;5053246;28;20029;-67
2022/07/18 00:32:32;;;;;;;4.15;1.70;;;24.20;56.10;;;;;;5052491;28;20021;-68
2022/07/18 00:34:57;;;;;;;3.65;1.70;;;24.20;56.10;;;;;;5051705;28;20390;-67
2022/07/18 00:37:23;;;;;;;5.28;1.90;;;24.10;56.00;;;;;;5053465;28;20847;-67
2022/07/18 00:39:48;;;;;;;4.65;1.67;;;24.20;56.10;;;;;;5053286;28;20037;-67
2022/07/18 00:42:14;;;;;;;3.92;1.90;;;24.30;56.00;;;;;;5053233;28;20029;-67
2022/07/18 00:44:39;;;;;;;2.95;1.40;;;24.10;56.10;;;;;;5052901;28;20025;-67
2022/07/18 00:47:05;;;;;;;3.30;1.58;;;24.10;56.30;;;;;;5053318;28;20468;-67
2022/07/18 00:49:31;;;;;;;5.03;1.85;;;24.10;56.10;;;;;;5053265;28;20024;-67
2022/07/18 00:51:56;;;;;;;4.80;1.73;;;24.10;56.10;;;;;;5053443;28;20108;-67
2022/07/18 00:54:22;;;;;;;3.72;1.90;;;24.10;56.10;;;;;;5053144;28;20064;-67
2022/07/18 00:56:50;;;;;;;6.40;1.70;;;24.00;56.10;;;;;;5053015;28;20041;-67
2022/07/18 00:59:16;;;;;;;4.10;1.73;;;24.00;56.10;;;;;;5052846;28;20047;-67
2022/07/18 01:01:42;;;;;;;3.75;1.70;;;24.00;56.00;;;;;;5053133;28;20021;-67
2022/07/18 01:04:09;;;;;;;4.15;1.80;;;24.00;56.10;;;;;;5052914;28;20025;-67
2022/07/18 01:06:35;;;;;;;4.57;1.88;;;24.00;56.10;;;;;;5051746;28;20040;-67
2022/07/18 01:09:00;;;;;;;6.53;1.80;;;24.00;56.00;;;;;;5052909;28;20032;-67
2022/07/18 01:11:26;;;;;;;5.18;1.70;;;23.80;56.00;;;;;;5052921;28;20031;-67
2022/07/18 01:13:52;;;;;;;3.35;1.77;;;23.80;56.20;;;;;;5052799;28;20033;-67
2022/07/18 01:16:18;;;;;;;6.93;1.98;;;23.80;56.00;;;;;;5051355;28;20413;-67
2022/07/18 01:18:46;;;;;;;4.97;1.85;;;23.80;56.00;;;;;;5055801;28;20041;-67
2022/07/18 01:21:11;;;;;;;5.78;1.75;;;23.80;56.00;;;;;;5057102;28;20068;-67
2022/07/18 01:23:37;;;;;;;5.03;1.60;;;23.80;55.90;;;;;;5057254;28;20596;-67
2022/07/18 01:26:03;;;;;;;7.18;1.95;;;23.70;55.90;;;;;;5056765;28;20524;-67
2022/07/18 01:28:28;;;;;;;3.30;1.92;;;23.70;55.90;;;;;;5056685;28;20424;-67
2022/07/18 01:30:54;;;;;;;5.50;1.75;;;23.80;55.80;;;;;;5056708;28;20021;-67
2022/07/18 01:33:19;;;;;;;6.40;1.83;;;23.70;55.80;;;;;;5056996;28;20029;-67
2022/07/18 01:35:45;;;;;;;5.68;1.85;;;23.70;55.70;;;;;;5056857;28;20029;-67
2022/07/18 01:38:11;;;;;;;4.05;1.75;;;23.70;55.40;;;;;;5053499;28;20489;-67
2022/07/18 01:40:36;;;;;;;4.00;1.65;;;23.70;55.30;;;;;;5052475;28;20021;-67
2022/07/18 01:43:02;;;;;;;4.30;1.67;;;23.60;55.30;;;;;;5036187;28;20024;-67
2022/07/18 01:45:27;;;;;;;4.32;1.42;;;23.60;55.20;;;;;;5034899;28;20057;-68
2022/07/18 01:47:53;;;;;;;3.97;1.70;;;23.70;55.20;;;;;;5035170;28;20534;-67
2022/07/18 01:50:19;;;;;;;6.22;1.75;;;23.60;55.00;;;;;;5036620;28;20021;-67
2022/07/18 01:52:44;;;;;;;4.22;1.65;;;23.70;55.10;;;;;;5036585;28;20025;-67
2022/07/18 01:55:10;;;;;;;6.90;1.90;;;23.70;55.10;;;;;;5036684;28;20053;-67
2022/07/18 01:57:36;;;;;;;8.10;2.00;;;23.70;54.90;;;;;;5035949;28;20471;-67
2022/07/18 02:00:05;;;;;;;3.08;1.73;;;23.70;54.90;;;;;;5036327;28;20037;-67
2022/07/18 02:02:30;;;;;;;5.40;1.75;;;23.70;55.20;;;;;;5036093;28;20024;-67
2022/07/18 02:05:03;;;;;;;3.85;1.90;;;23.70;55.20;;;;;;5036267;28;20025;-67
2022/07/18 02:07:31;;;;;;;4.53;1.60;;;23.70;55.40;;;;;;5036271;28;20372;-67
2022/07/18 02:09:57;;;;;;;5.43;1.80;;;23.60;55.40;;;;;;5036281;28;20475;-68
2022/07/18 02:12:23;;;;;;;4.65;1.75;;;23.60;55.60;;;;;;5035874;28;20029;-67
2022/07/18 02:14:49;;;;;;;3.92;1.85;;;23.60;55.60;;;;;;5036185;28;20113;-67
2022/07/18 02:17:15;;;;;;;8.43;2.03;;;23.60;55.80;;;;;;5035952;28;20022;-68
2022/07/18 02:19:41;;;;;;;6.55;2.05;;;23.60;55.80;;;;;;5036382;28;20107;-67
2022/07/18 02:22:06;;;;;;;5.57;1.88;;;23.60;56.00;;;;;;5036125;28;20025;-67
2022/07/18 02:24:32;;;;;;;3.80;2.05;;;23.60;55.90;;;;;;5035949;28;20033;-68
2022/07/18 02:26:58;;;;;;;7.90;1.77;;;23.70;55.80;;;;;;5035658;28;20025;-67
2022/07/18 02:29:24;;;;;;;3.72;2.17;;;23.60;56.20;;;;;;5035685;28;20017;-67
2022/07/18 02:31:49;;;;;;;4.43;2.13;;;23.60;56.40;;;;;;5035681;28;20030;-67
2022/07/18 02:34:15;;;;;;;5.97;2.03;;;23.70;56.40;;;;;;5035903;28;20061;-67
2022/07/18 02:36:42;;;;;;;4.07;1.83;;;23.70;56.20;;;;;;5035661;28;20517;-67
2022/07/18 02:39:08;;;;;;;5.30;2.17;;;23.60;56.80;;;;;;5035541;28;20034;-67
2022/07/18 02:41:34;;;;;;;3.10;1.88;;;23.50;56.20;;;;;;5034052;28;20021;-67
2022/07/18 02:44:00;;;;;;;6.32;2.15;;;23.40;56.00;;;;;;5035666;28;20391;-67
2022/07/18 02:46:26;;;;;;;7.50;2.28;;;23.40;56.20;;;;;;5035538;28;20037;-67
2022/07/18 02:48:52;;;;;;;6.72;2.17;;;23.40;56.10;;;;;;5035445;28;20025;-67
2022/07/18 02:51:18;;;;;;;6.38;2.17;;;23.40;55.80;;;;;;5035467;28;20032;-67
2022/07/18 02:53:43;;;;;;;5.70;2.10;;;23.40;55.80;;;;;;5035369;28;20017;-67
2022/07/18 02:56:09;;;;;;;8.90;2.15;;;23.40;55.80;;;;;;5045264;28;20465;-67
2022/07/18 02:58:34;;;;;;;6.28;2.38;;;23.40;55.80;;;;;;5033983;28;20037;-67
2022/07/18 03:01:00;;;;;;;6.65;2.33;;;23.40;55.70;;;;;;5034800;28;20124;-67
2022/07/18 03:03:25;;;;;;;6.88;2.17;;;23.40;55.90;;;;;;5034932;28;20025;-68
2022/07/18 03:05:51;;;;;;;4.32;2.25;;;23.40;55.50;;;;;;5035104;28;20033;-67
2022/07/18 03:08:16;;;;;;;4.35;1.95;;;23.30;55.60;;;;;;5035276;28;20364;-67
2022/07/18 03:10:42;;;;;;;2.70;1.58;;;23.20;55.60;;;;;;5034933;28;20026;-67
2022/07/18 03:13:08;;;;;;;5.78;1.92;;;23.30;55.40;;;;;;5035014;28;20049;-67
2022/07/18 03:15:33;;;;;;;4.53;1.83;;;23.40;55.20;;;;;;5035094;28;20022;-67
2022/07/18 03:17:59;;;;;;;4.60;1.73;;;23.50;55.30;;;;;;5034812;28;20029;-67
2022/07/18 03:20:24;;;;;;;6.50;1.70;;;23.50;55.40;;;;;;5034876;28;20029;-67
2022/07/18 03:22:50;;;;;;;3.42;1.50;;;23.40;55.10;;;;;;5034687;28;20052;-67
2022/07/18 03:25:15;;;;;;;5.53;1.35;;;23.50;55.30;;;;;;5034895;28;20053;-67
2022/07/18 03:27:41;;;;;;;5.05;1.50;;;23.50;55.80;;;;;;5034781;28;20116;-67
2022/07/18 03:30:07;;;;;;;5.78;1.85;;;23.50;55.00;;;;;;5034798;28;20063;-67
2022/07/18 03:32:33;;;;;;;4.00;1.40;;;23.50;54.80;;;;;;5034634;28;20021;-67
2022/07/18 03:34:58;;;;;;;3.78;1.65;;;23.50;54.80;;;;;;5034534;28;20028;-67
2022/07/18 03:37:24;;;;;;;5.82;1.75;;;23.50;55.50;;;;;;5034526;28;20033;-67
2022/07/18 03:39:49;;;;;;;5.32;1.77;;;23.50;55.30;;;;;;5034126;28;20033;-68
2022/07/18 03:42:15;;;;;;;5.88;2.08;;;23.40;55.60;;;;;;5034267;28;20021;-67
2022/07/18 03:44:41;;;;;;;4.22;1.80;;;23.40;55.80;;;;;;5034339;28;20018;-67
2022/07/18 03:47:06;;;;;;;4.88;1.85;;;23.30;55.60;;;;;;5034655;28;20103;-67
2022/07/18 03:49:32;;;;;;;8.32;2.38;;;23.30;55.90;;;;;;5034551;28;20021;-68
2022/07/18 03:51:57;;;;;;;4.53;1.95;;;23.40;56.10;;;;;;5034181;28;20164;-67
2022/07/18 03:54:23;;;;;;;4.10;1.63;;;23.20;56.30;;;;;;5034235;28;20030;-67
2022/07/18 03:56:50;;;;;;;6.53;2.63;;;23.10;56.50;;;;;;5034363;28;20018;-67
2022/07/18 03:59:16;;;;;;;7.47;1.70;;;23.20;56.70;;;;;;5034111;28;20056;-67
2022/07/18 04:01:42;;;;;;;6.00;1.80;;;23.20;56.70;;;;;;5034245;28;20390;-67
2022/07/18 04:04:07;;;;;;;4.35;2.33;;;23.20;57.00;;;;;;5033996;28;20489;-67
2022/07/18 04:06:33;;;;;;;4.63;2.17;;;23.30;56.70;;;;;;5033894;28;20467;-67
2022/07/18 04:08:58;;;;;;;4.45;2.33;;;23.30;56.90;;;;;;5033992;28;20025;-68
2022/07/18 04:11:24;;;;;;;3.42;1.88;;;23.30;56.70;;;;;;5033975;28;20032;-68
2022/07/18 04:13:54;;;;;;;5.18;1.98;;;23.30;56.90;;;;;;5034107;28;20418;-67
2022/07/18 04:16:20;;;;;;;6.90;2.30;;;23.20;56.90;;;;;;5034014;28;20064;-68
2022/07/18 04:18:46;;;;;;;9.48;2.33;;;23.10;57.10;;;;;;5033857;28;20064;-67
2022/07/18 04:21:12;;;;;;;5.75;2.00;;;23.00;57.40;;;;;;5033452;28;20029;-68
2022/07/18 04:23:38;;;;;;;6.68;2.33;;;23.10;57.50;;;;;;5033937;28;20083;-67
2022/07/18 04:26:04;;;;;;;7.63;2.53;;;23.00;57.50;;;;;;5033611;28;20094;-68
2022/07/18 04:28:30;;;;;;;7.20;2.50;;;23.10;57.50;;;;;;5033736;28;20466;-67
2022/07/18 04:30:56;;;;;;;6.40;2.65;;;23.20;57.40;;;;;;5033479;28;20036;-68
2022/07/18 04:33:21;;;;;;;9.07;4.07;;;23.20;57.70;;;;;;5033713;28;20017;-67
2022/07/18 04:35:48;;;;;;;8.18;3.33;;;23.20;57.80;;;;;;5033012;28;20166;-68
2022/07/18 04:38:13;;;;;;;7.22;3.28;;;23.10;57.80;;;;;;5033479;28;20088;-67
2022/07/18 04:40:39;;;;;;;5.97;3.20;;;23.20;57.90;;;;;;5038574;28;20060;-68
2022/07/18 04:43:06;;;;;;;5.03;2.58;;;23.30;58.00;;;;;;5051270;28;20466;-68
2022/07/18 04:45:31;;;;;;;5.90;2.65;;;23.30;58.20;;;;;;5053395;28;20028;-68
2022/07/18 04:47:57;;;;;;;6.90;2.67;;;23.30;58.20;;;;;;5053394;28;20489;-68
2022/07/18 04:50:23;;;;;;;9.98;2.53;;;23.20;58.40;;;;;;5048540;28;20099;-67
2022/07/18 04:52:50;;;;;;;16.77;3.22;;;22.30;60.40;;;;;;5034526;28;20030;-68
2022/07/18 04:55:17;;;;;;;6.40;2.63;;;21.70;63.10;;;;;;5052558;28;20105;-68
2022/07/18 04:57:43;;;;;;;6.88;2.63;;;22.30;61.30;;;;;;5041326;28;20036;-67
2022/07/18 05:00:20;;;;;;;7.40;2.63;;;22.60;60.20;;;;;;5043853;28;20024;-68
2022/07/18 05:02:48;;;;;;;6.22;2.30;;;22.90;60.20;;;;;;5041169;28;20022;-68
2022/07/18 05:05:15;;;;;;;8.63;2.35;;;23.10;59.50;;;;;;5032244;28;20057;-67
2022/07/18 05:07:42;;;;;;;8.30;2.30;;;23.10;59.00;;;;;;5049041;28;20029;-67
2022/07/18 05:10:09;;;;;;;6.55;2.00;;;23.10;59.00;;;;;;5052873;28;20096;-67
2022/07/18 05:12:40;;;;;;;5.70;2.60;;;23.20;59.10;;;;;;5040473;28;20108;-67
2022/07/18 05:15:09;;;;;;;5.85;2.30;;;23.20;59.20;;;;;;5031658;28;20060;-67
2022/07/18 05:17:35;;;;;;;5.88;2.25;;;23.20;59.50;;;;;;5031975;28;20018;-68
2022/07/18 05:20:01;;;;;;;6.97;2.47;;;23.20;59.60;;;;;;5032885;28;20056;-67
2022/07/18 05:22:26;;;;;;;7.32;2.40;;;23.20;60.00;;;;;;5031459;28;20025;-67
2022/07/18 05:24:52;;;;;;;8.35;2.88;;;23.20;59.40;;;;;;5032953;28;20021;-67
2022/07/18 05:27:18;;;;;;;6.93;2.50;;;23.20;59.90;;;;;;5033077;28;20099;-68
2022/07/18 05:29:44;;;;;;;9.10;2.33;;;23.30;60.20;;;;;;5032821;28;20061;-67
2022/07/18 05:32:11;;;;;;;5.72;2.22;;;23.30;61.70;;;;;;5032746;28;20030;-68
2022/07/18 05:34:36;;;;;;;4.25;2.17;;;23.30;61.20;;;;;;5032600;28;20026;-67
2022/07/18 05:37:02;;;;;;;5.82;2.22;;;23.30;61.40;;;;;;5032583;28;20398;-67
2022/07/18 05:39:27;;;;;;;4.35;2.20;;;23.30;61.60;;;;;;5032920;28;20080;-67
2022/07/18 05:41:53;;;;;;;4.32;2.05;;;23.30;60.90;;;;;;5032565;28;20022;-68
2022/07/18 05:44:20;;;;;;;8.77;2.20;;;23.30;60.50;;;;;;5032769;28;20021;-68
2022/07/18 05:46:46;;;;;;;6.07;2.20;;;23.30;60.50;;;;;;5032789;28;20026;-68
2022/07/18 05:49:13;;;;;;;4.88;1.90;;;23.30;60.50;;;;;;5032534;28;20025;-69
2022/07/18 05:51:39;;;;;;;7.22;2.40;;;23.30;60.40;;;;;;5032524;28;20498;-68
2022/07/18 05:54:05;;;;;;;5.55;2.25;;;23.40;60.40;;;;;;5032726;28;20057;-67
2022/07/18 05:56:30;;;;;;;6.70;2.13;;;23.40;60.40;;;;;;5032485;28;20029;-67
2022/07/18 05:58:56;;;;;;;7.88;2.42;;;23.40;60.50;;;;;;5032715;28;20065;-68
2022/07/18 06:01:22;;;;;;;7.45;2.30;;;23.40;60.60;;;;;;5032659;28;20425;-68
2022/07/18 06:03:47;;;;;;;7.20;2.03;;;23.50;60.70;;;;;;5033592;28;20033;-68
2022/07/18 06:06:14;;;;;;;6.80;2.10;;;23.60;60.80;;;;;;5036670;28;20021;-67
2022/07/18 06:08:40;;;;;;;6.50;1.80;;;23.60;60.50;;;;;;5036266;28;20216;-68
2022/07/18 06:11:07;;;;;;;4.28;1.83;;;23.70;60.00;;;;;;5036382;28;20136;-68
2022/07/18 06:13:34;;;;;;;4.70;1.83;;;23.70;60.20;;;;;;5036047;28;20025;-68
2022/07/18 06:15:59;;;;;;;6.72;2.20;;;23.80;60.70;;;;;;5034944;28;20494;-68
2022/07/18 06:18:25;;;;;;;10.98;2.70;;;23.80;60.50;;;;;;5035640;28;20038;-67
2022/07/18 06:20:51;;;;;;;4.80;1.95;;;23.80;60.30;;;;;;5036332;28;20502;-67
2022/07/18 06:23:16;;;;;;;6.28;1.98;;;23.80;60.20;;;;;;5036014;28;20483;-68
2022/07/18 06:25:42;;;;;;;6.82;2.40;;;24.00;60.40;;;;;;5036025;28;20139;-68
2022/07/18 06:28:07;;;;;;;3.95;1.77;;;24.00;60.10;;;;;;5035810;28;20068;-68
2022/07/18 06:30:33;;;;;;;8.27;2.10;;;24.00;60.00;;;;;;5035964;28;20028;-67
2022/07/18 06:32:58;;;;;;;8.88;2.20;;;24.10;59.70;;;;;;5035343;28;20030;-67
2022/07/18 06:35:24;;;;;;;5.93;2.42;;;24.20;59.70;;;;;;5035528;28;20439;-68
2022/07/18 06:37:50;;;;;;;9.07;2.25;;;24.20;59.50;;;;;;5035530;28;20033;-69
2022/07/18 06:40:15;;;;;;;10.13;2.25;;;24.30;59.50;;;;;;5035907;28;20113;-67
2022/07/18 06:42:41;;;;;;;5.28;2.13;;;24.30;59.90;;;;;;5035452;28;20057;-68
2022/07/18 06:45:07;;;;;;;7.82;2.50;;;24.40;59.80;;;;;;5035813;28;20029;-68
2022/07/18 06:47:33;;;;;;;6.97;2.53;;;24.40;59.60;;;;;;5035108;28;20487;-68
2022/07/18 06:49:58;;;;;;;7.60;2.53;;;24.50;59.60;;;;;;5035615;28;20075;-68
2022/07/18 06:52:24;;;;;;;5.38;2.20;;;24.50;59.60;;;;;;5035395;28;20370;-67
2022/07/18 06:54:49;;;;;;;5.13;2.38;;;24.60;59.80;;;;;;5035339;28;20414;-68
2022/07/18 06:57:15;;;;;;;9.15;2.45;;;24.60;59.80;;;;;;5035468;28;20061;-68
2022/07/18 06:59:41;;;;;;;5.95;2.03;;;24.70;59.80;;;;;;5033722;28;20034;-68
2022/07/18 07:02:07;;;;;;;7.30;2.30;;;24.70;59.80;;;;;;5044832;28;20103;-68
2022/07/18 07:04:32;;;;;;;8.38;2.25;;;24.80;59.80;;;;;;5054907;28;20546;-68
2022/07/18 07:06:58;;;;;;;4.20;1.92;;;24.80;59.80;;;;;;5055028;28;20033;-68
2022/07/18 07:09:24;;;;;;;5.55;1.80;;;24.80;60.20;;;;;;5053350;28;20065;-68
2022/07/18 07:11:49;;;;;;;7.50;2.13;;;24.90;60.30;;;;;;5051846;28;20480;-68
2022/07/18 07:14:15;;;;;;;9.55;2.13;;;24.90;60.30;;;;;;5049141;28;20033;-69
2022/07/18 07:16:40;;;;;;;5.38;2.30;;;24.90;60.20;;;;;;5052900;28;20028;-69
2022/07/18 07:19:06;;;;;;;4.95;2.00;;;25.00;60.10;;;;;;5056265;28;20253;-68
2022/07/18 07:21:31;;;;;;;4.43;2.20;;;25.10;60.40;;;;;;5067637;28;20031;-69
2022/07/18 07:23:57;;;;;;;5.97;2.13;;;25.10;60.50;;;;;;5051957;28;20501;-69
2022/07/18 07:26:23;;;;;;;5.72;2.20;;;25.20;60.70;;;;;;5057847;28;20469;-69
2022/07/18 07:28:49;;;;;;;6.63;2.42;;;25.20;60.50;;;;;;5049573;28;20028;-70
2022/07/18 07:31:15;;;;;;;5.50;2.17;;;25.30;60.20;;;;;;5043865;28;20096;-69
2022/07/18 07:33:40;;;;;;;7.95;1.92;;;25.30;60.50;;;;;;5061910;28;20016;-69
2022/07/18 07:36:07;;;;;;;6.70;1.70;;;25.30;60.60;;;;;;5067032;28;20418;-69
2022/07/18 07:38:33;;;;;;;4.93;2.08;;;25.30;60.60;;;;;;5023019;28;20131;-68
2022/07/18 07:41:01;;;;;;;8.57;2.33;;;25.50;60.90;;;;;;5032736;28;20099;-69
2022/07/18 07:43:27;;;;;;;5.05;1.77;;;25.50;60.90;;;;;;5039213;28;20017;-69
2022/07/18 07:45:53;;;;;;;3.33;1.50;;;25.50;61.00;;;;;;5040854;28;20025;-69
2022/07/18 07:48:19;;;;;;;5.18;1.80;;;25.60;61.00;;;;;;5038577;28;20035;-69
2022/07/18 07:50:45;;;;;;;3.20;1.45;;;25.60;61.10;;;;;;5036740;28;20068;-69
2022/07/18 07:53:11;;;;;;;5.03;2.00;;;25.50;60.50;;;;;;5037989;28;20049;-69
2022/07/18 07:55:36;;;;;;;3.50;1.80;;;25.60;61.10;;;;;;5037530;28;20039;-68
2022/07/18 07:58:04;;;;;;;2.47;1.60;;;25.60;60.70;;;;;;5040617;28;20029;-68
2022/07/18 08:00:30;;;;;;;5.40;1.92;;;25.70;60.60;;;;;;5036834;28;20025;-67
2022/07/18 08:03:00;;;;;;;3.83;1.80;;;25.70;60.30;;;;;;5038283;28;20028;-67
2022/07/18 08:05:30;;;;;;;4.05;1.65;;;25.70;60.60;;;;;;5044162;28;20086;-69
2022/07/18 08:07:57;;;;;;;3.72;1.55;;;25.80;60.90;;;;;;5050792;28;20028;-69
2022/07/18 08:10:23;;;;;;;5.90;1.83;;;25.80;60.60;;;;;;5045179;28;20029;-69
2022/07/18 08:12:49;;;;;;;4.43;1.48;;;25.80;60.70;;;;;;5034753;28;20017;-69
2022/07/18 08:15:15;;;;;;;4.38;1.73;;;25.90;60.80;;;;;;5050336;28;20497;-69
2022/07/18 08:17:40;;;;;;;2.70;1.40;;;25.90;60.70;;;;;;5058925;28;20303;-69
2022/07/18 08:20:07;;;;;;;7.50;1.70;;;25.80;60.60;;;;;;5065119;28;20162;-69
2022/07/18 08:22:33;;;;;;;3.20;1.13;;;25.80;60.80;;;;;;5048439;28;20579;-69
2022/07/18 08:24:58;;;;;;;2.97;1.52;;;26.00;61.70;;;;;;5042074;28;20666;-69
2022/07/18 08:27:24;;;;;;;3.75;1.60;;;26.00;61.00;;;;;;5038336;28;20047;-68
2022/07/18 08:29:50;;;;;;;4.45;1.38;;;25.90;60.70;;;;;;5039156;28;20040;-68
2022/07/18 08:32:16;;;;;;;3.63;1.50;;;25.90;60.90;;;;;;5038968;28;20033;-68
2022/07/18 08:34:41;;;;;;;3.75;1.60;;;25.90;60.80;;;;;;5039004;28;20116;-69
2022/07/18 08:37:07;;;;;;;4.20;1.80;;;25.90;60.90;;;;;;5032646;28;20044;-69
2022/07/18 08:39:32;;;;;;;2.70;1.23;;;25.90;61.00;;;;;;5039614;28;20041;-67
2022/07/18 08:42:00;;;;;;;3.58;1.65;;;25.90;61.00;;;;;;5062162;28;20476;-68
2022/07/18 08:44:28;;;;;;;4.78;1.60;;;25.90;61.10;;;;;;5055841;28;20045;-69
2022/07/18 08:46:57;;;;;;;4.50;1.52;;;26.00;60.80;;;;;;5045566;28;20029;-68
2022/07/18 08:49:23;;;;;;;5.68;1.48;;;26.10;61.00;;;;;;5031917;28;20029;-68
2022/07/18 08:51:49;;;;;;;6.38;1.77;;;26.10;60.80;;;;;;5030657;28;20025;-68
2022/07/18 08:54:15;;;;;;;4.07;1.73;;;26.10;61.50;;;;;;5040087;28;20380;-70
2022/07/18 08:56:41;;;;;;;2.65;1.60;;;26.00;60.90;;;;;;5045783;28;20033;-69
2022/07/18 08:59:07;;;;;;;4.30;1.40;;;26.10;60.80;;;;;;5039881;28;20036;-69
2022/07/18 09:01:33;;;;;;;5.32;1.63;;;26.10;61.10;;;;;;5046195;28;20017;-69
2022/07/18 09:04:18;;;;;;;3.33;1.40;;;26.10;61.20;;;;;;5046426;28;20029;-69
2022/07/18 09:06:47;;;;;;;4.63;1.77;;;26.10;61.20;;;;;;5033113;28;20049;-66
2022/07/18 09:09:14;;;;;;;5.97;1.50;;;26.20;61.50;;;;;;5038725;28;20029;-69
2022/07/18 09:12:09;;;;;;;3.17;1.45;;;26.30;60.80;;;;;;5049601;28;20511;-68
2022/07/18 09:14:38;;;;;;;5.57;1.30;;;26.20;60.90;;;;;;5042886;28;20068;-69
2022/07/18 09:17:16;;;;;;;2.53;1.40;;;26.20;61.10;;;;;;5043294;28;20032;-68
2022/07/18 09:19:59;;;;;;;3.20;1.33;;;26.20;61.40;;;;;;5049581;28;20037;-69
2022/07/18 09:22:28;;;;;;;4.18;1.40;;;26.20;62.00;;;;;;5045397;28;20075;-68
2022/07/18 09:25:11;;;;;;;4.93;1.95;;;26.20;61.50;;;;;;5057095;28;20040;-68
2022/07/18 09:27:37;;;;;;;3.78;1.25;;;26.30;61.90;;;;;;5055419;28;20024;-69
2022/07/18 09:30:21;;;;;;;6.28;1.08;;;26.30;61.30;;;;;;5066727;28;20343;-69
2022/07/18 09:33:02;;;;;;;2.50;1.27;;;26.30;61.90;;;;;;5047685;28;20429;-68
2022/07/18 09:35:30;;;;;;;3.25;1.63;;;26.30;62.10;;;;;;5051220;28;20047;-69
2022/07/18 09:37:58;;;;;;;5.00;1.42;;;26.20;62.10;;;;;;5048462;28;20026;-68
2022/07/18 09:40:33;;;;;;;3.05;1.38;;;26.20;62.10;;;;;;5050015;28;20490;-69
2022/07/18 09:43:04;;;;;;;4.13;1.45;;;26.20;62.20;;;;;;5037273;28;20021;-68
2022/07/18 09:45:44;;;;;;;4.00;1.70;;;26.30;62.20;;;;;;5050806;28;20028;-67
2022/07/18 09:48:25;;;;;;;5.68;1.45;;;26.20;62.20;;;;;;5043440;28;20072;-68
2022/07/18 09:51:03;;;;;;;3.65;1.42;;;26.20;62.20;;;;;;5053898;28;20029;-68
2022/07/18 09:53:40;;;;;;;4.72;1.60;;;26.30;62.10;;;;;;5044765;28;20024;-68
2022/07/18 09:56:24;;;;;;;3.67;1.45;;;26.30;62.10;;;;;;5051643;28;20024;-68
2022/07/18 09:58:52;;;;;;;8.95;1.80;;;26.30;62.10;;;;;;5042561;28;20482;-68
2022/07/18 10:01:19;;;;;;;3.55;1.42;;;26.30;62.20;;;;;;5051333;28;20029;-68
2022/07/18 10:03:46;;;;;;;5.45;1.45;;;26.30;62.30;;;;;;5036696;28;20920;-68
2022/07/18 10:06:19;;;;;;;3.92;1.50;;;26.30;62.30;;;;;;5041511;28;20043;-68
2022/07/18 10:08:45;;;;;;;3.90;1.50;;;26.30;62.40;;;;;;5034517;28;20030;-68
2022/07/18 10:11:11;;;;;;;5.15;1.33;;;26.30;62.30;;;;;;5044002;28;20017;-68
2022/07/18 10:13:38;;;;;;;6.28;1.65;;;26.30;62.20;;;;;;5039025;28;20049;-68
2022/07/18 10:16:05;;;;;;;2.22;1.27;;;26.40;62.30;;;;;;5056420;28;20470;-68
2022/07/18 10:18:36;;;;;;;3.75;1.42;;;26.40;62.30;;;;;;5062048;28;20053;-68
2022/07/18 10:21:13;;;;;;;3.95;1.20;;;26.40;62.20;;;;;;5041034;28;20039;-68
2022/07/18 10:23:42;;;;;;;3.28;1.38;;;26.40;62.60;;;;;;5041151;28;20029;-68
2022/07/18 10:26:19;;;;;;;3.95;1.38;;;26.40;62.50;;;;;;5049287;28;20482;-67
2022/07/18 10:29:34;;;;;;;4.18;1.05;;;26.40;62.60;;;;;;5048083;28;20028;-67
2022/07/18 10:32:03;;;;;;;7.72;1.50;;;26.50;62.70;;;;;;5051136;28;20029;-68
2022/07/18 10:34:46;;;;;;;5.63;1.50;;;26.50;62.70;;;;;;5059289;28;20020;-67
2022/07/18 10:37:23;;;;;;;5.55;1.38;;;26.50;62.90;;;;;;5054872;28;20068;-69
2022/07/18 10:39:50;;;;;;;7.60;1.45;;;26.50;62.90;;;;;;5066372;28;20112;-68
2022/07/18 10:42:18;;;;;;;6.47;1.50;;;26.40;63.40;;;;;;5063455;28;20021;-66
2022/07/18 10:44:44;;;;;;;8.88;1.60;;;26.50;63.20;;;;;;5060665;28;20037;-65
2022/07/18 10:47:20;;;;;;;6.47;1.65;;;26.50;63.50;;;;;;5056720;28;20342;-66
2022/07/18 10:49:46;;;;;;;7.88;1.40;;;26.50;63.20;;;;;;5046562;28;20038;-66
2022/07/18 10:52:30;;;;;;;4.63;1.50;;;26.60;63.10;;;;;;5043206;28;20040;-66
2022/07/18 10:55:01;;;;;;;5.57;1.33;;;26.50;63.40;;;;;;5043155;28;20532;-67
2022/07/18 10:57:28;;;;;;;6.80;2.05;;;26.50;63.60;;;;;;5040385;28;20479;-67
2022/07/18 11:00:08;;;;;;;5.38;1.70;;;26.50;64.20;;;;;;5038065;28;20040;-67
2022/07/18 11:02:42;;;;;;;4.45;1.52;;;26.60;64.10;;;;;;5041874;28;20445;-67
2022/07/18 11:05:22;;;;;;;3.95;1.67;;;26.60;64.10;;;;;;5043690;28;20057;-66
2022/07/18 11:08:03;;;;;;;4.95;1.50;;;26.60;64.40;;;;;;5050789;28;20020;-66
2022/07/18 11:10:41;;;;;;;3.72;1.23;;;26.60;64.50;;;;;;5049803;28;21231;-67
2022/07/18 11:13:28;;;;;;;4.78;1.55;;;26.60;64.60;;;;;;5032131;28;20022;-67
2022/07/18 11:16:08;;;;;;;3.88;1.73;;;26.60;64.70;;;;;;5045283;28;20037;-67
2022/07/18 11:18:40;;;;;;;5.18;1.52;;;26.60;64.90;;;;;;5035460;28;20128;-67
2022/07/18 11:21:20;;;;;;;4.85;1.70;;;26.60;64.80;;;;;;5034835;28;20033;-67
2022/07/18 11:23:51;;;;;;;8.10;2.22;;;26.60;65.20;;;;;;5039645;28;20509;-67
2022/07/18 11:26:19;;;;;;;7.45;2.17;;;26.60;65.60;;;;;;5037633;28;20531;-67
2022/07/18 11:28:48;;;;;;;5.80;1.60;;;26.60;65.70;;;;;;5051705;28;20029;-68
2022/07/18 11:31:14;;;;;;;6.60;1.92;;;26.70;66.40;;;;;;5036730;28;20387;-66
2022/07/18 11:33:45;;;;;;;6.43;1.92;;;26.70;67.30;;;;;;5034393;28;20489;-66
2022/07/18 11:36:13;;;;;;;7.63;1.80;;;26.70;67.70;;;;;;5032254;28;20029;-67
2022/07/18 11:38:50;;;;;;;7.45;1.58;;;26.80;67.80;;;;;;5044404;28;20052;-66
2022/07/18 11:41:17;;;;;;;5.97;1.80;;;26.80;68.00;;;;;;5049996;28;20115;-68
2022/07/18 11:43:47;;;;;;;4.88;1.63;;;26.80;67.50;;;;;;5048985;28;20025;-68
2022/07/18 11:46:16;;;;;;;6.85;2.28;;;26.70;69.00;;;;;;5044361;28;20039;-68
2022/07/18 11:48:43;;;;;;;3.30;1.60;;;26.80;69.80;;;;;;5047834;28;20029;-67
2022/07/18 11:51:13;;;;;;;4.40;2.08;;;26.80;70.30;;;;;;5051396;28;20021;-68
2022/07/18 11:53:46;;;;;;;6.13;2.10;;;26.80;70.70;;;;;;5055701;28;20028;-68
2022/07/18 11:56:12;;;;;;;5.20;1.98;;;26.80;70.50;;;;;;5056997;28;20508;-69
2022/07/18 11:58:40;;;;;;;6.55;2.22;;;26.80;73.20;;;;;;5033589;28;20551;-68
2022/07/18 12:01:06;;;;;;;5.13;2.15;;;26.80;73.40;;;;;;5058171;28;20428;-68
2022/07/18 12:03:35;;;;;;;7.25;1.88;;;26.90;73.60;;;;;;5047597;28;20353;-68
2022/07/18 12:06:17;;;;;;;6.47;1.80;;;26.90;73.70;;;;;;5044985;28;20460;-68
2022/07/18 12:08:46;;;;;;;4.65;2.30;;;26.90;72.20;;;;;;5038965;28;20022;-68
2022/07/18 12:11:20;;;;;;;7.78;1.77;;;27.00;73.50;;;;;;5032038;28;20025;-69
2022/07/18 12:13:46;;;;;;;3.08;1.50;;;26.90;73.40;;;;;;5035923;28;20021;-68
2022/07/18 12:16:26;;;;;;;4.47;1.50;;;26.90;73.00;;;;;;5052651;28;20033;-67
2022/07/18 12:19:05;;;;;;;4.45;1.67;;;26.90;72.10;;;;;;5052880;28;20052;-67
2022/07/18 12:22:04;;;;;;;7.47;1.60;;;26.90;72.70;;;;;;5052261;28;20025;-67
2022/07/18 12:24:32;;;;;;;6.95;1.45;;;27.00;71.80;;;;;;5051336;28;20025;-67
2022/07/18 12:27:31;;;;;;;4.90;1.83;;;27.00;71.40;;;;;;5030752;28;20024;-68
2022/07/18 12:30:19;;;;;;;4.53;1.50;;;26.90;71.00;;;;;;5032742;28;20468;-68
2022/07/18 12:32:52;;;;;;;4.82;1.63;;;26.90;70.70;;;;;;5030963;28;20048;-67
2022/07/18 12:35:27;;;;;;;3.97;1.30;;;26.90;70.50;;;;;;5043630;28;20047;-68
2022/07/18 12:38:13;;;;;;;2.22;1.00;;;27.00;70.50;;;;;;5043348;28;20033;-68
2022/07/18 12:41:00;;;;;;;2.30;1.13;;;27.10;66.10;;;;;;5035128;28;20045;-68
2022/07/18 12:43:28;;;;;;;3.80;1.30;;;27.00;69.00;;;;;;5051622;28;20084;-68
2022/07/18 12:45:56;;;;;;;4.43;1.23;;;27.00;69.10;;;;;;5057789;28;20082;-69
2022/07/18 12:48:22;;;;;;;3.78;1.02;;;27.00;68.60;;;;;;5056672;28;20093;-68
2022/07/18 12:51:02;;;;;;;5.28;1.23;;;27.00;67.80;;;;;;5052811;28;20435;-68